Terminal Aerodrome Forecast
Issued by NWS

Home | Current Version | Previous Version | Text Only | Print | Product List | Glossary On
Versions: 1 2 3 4 5 6 7 8 9 10 11 12 13 14 15
000
FTUS45 KABQ 211120
TAFSAF
TAF
KSAF 211120Z 2112/2212 36006KT P6SM VCSH SCT015 OVC035
      TEMPO 2112/2116 15010KT 4SM BR OVC015
     FM211600 16007KT P6SM SCT020 BKN040
     FM211900 21010KT P6SM SCT060 BKN120
     FM212300 14010KT P6SM VCTS SCT070CB BKN100=

USA.gov is the U.S. government's official web portal to all federal, state and local government web resources and services.